Time;durP1;ratioP1;P1;durP2;ratioP2;P2;SDS_P1;SDS_P2;PMS_P1;PMS_P2;Temp;Humidity;BMP_temperature;BMP_pressure;BME280_temperature;BME280_humidity;BME280_pressure;Samples;Min_cycle;Max_cycle;Signal;HPM_P1;HPM_P2
2023/03/04 00:02:05;;;;;;;18.97;11.77;;;;;;;;;;5043375;28;20205;-74
2023/03/04 00:04:32;;;;;;;22.63;12.53;;;;;;;;;;5017023;28;20722;-72
2023/03/04 00:06:59;;;;;;;22.27;13.13;;;;;;;;;;5048390;28;20621;-72
2023/03/04 00:09:25;;;;;;;22.90;12.87;;;;;;;;;;5047196;28;20304;-74
2023/03/04 00:11:51;;;;;;;20.57;12.30;;;;;;;;;;5045843;28;20232;-75
2023/03/04 00:14:17;;;;;;;21.50;11.40;;;;;;;;;;5047805;28;20233;-75
2023/03/04 00:16:44;;;;;;;22.80;12.47;;;;;;;;;;5048096;28;20182;-74
2023/03/04 00:19:10;;;;;;;18.77;11.43;;;;;;;;;;5030684;28;20542;-77
2023/03/04 00:21:36;;;;;;;18.93;12.73;;;;;;;;;;5023781;28;20304;-74
2023/03/04 00:24:02;;;;;;;20.37;11.67;;;;;;;;;;5043724;28;20189;-74
2023/03/04 00:26:28;;;;;;;18.73;11.13;;;;;;;;;;5046990;28;20201;-74
2023/03/04 00:28:55;;;;;;;19.33;11.73;;;;;;;;;;5029033;28;20269;-74
2023/03/04 00:31:21;;;;;;;18.37;11.27;;;;;;;;;;5046291;28;20547;-74
2023/03/04 00:33:47;;;;;;;18.97;10.53;;;;;;;;;;5046036;28;22072;-74
2023/03/04 00:36:15;;;;;;;20.37;11.77;;;;;;;;;;5039694;28;20182;-74
2023/03/04 00:38:43;;;;;;;19.03;11.87;;;;;;;;;;5049260;28;20673;-74
2023/03/04 00:41:09;;;;;;;18.17;11.27;;;;;;;;;;5045465;28;20209;-73
2023/03/04 00:43:35;;;;;;;20.83;11.50;;;;;;;;;;5045056;28;20792;-76
2023/03/04 00:46:02;;;;;;;20.83;11.43;;;;;;;;;;5048350;28;20177;-76
2023/03/04 00:48:29;;;;;;;18.03;11.53;;;;;;;;;;5050523;28;20706;-76
2023/03/04 00:50:55;;;;;;;21.47;12.43;;;;;;;;;;5048195;28;20613;-76
2023/03/04 00:53:22;;;;;;;21.00;11.40;;;;;;;;;;5047893;28;20185;-76
2023/03/04 00:55:49;;;;;;;16.97;10.30;;;;;;;;;;5030230;28;20813;-76
2023/03/04 00:58:15;;;;;;;19.60;11.10;;;;;;;;;;5026381;28;20267;-76
2023/03/04 01:00:41;;;;;;;19.97;11.30;;;;;;;;;;5047070;28;20184;-76
2023/03/04 01:03:07;;;;;;;20.83;11.57;;;;;;;;;;5047890;28;20201;-76
2023/03/04 01:05:34;;;;;;;23.00;12.07;;;;;;;;;;5050337;28;20177;-76
2023/03/04 01:08:01;;;;;;;20.30;11.63;;;;;;;;;;5048910;28;20242;-76
2023/03/04 01:10:27;;;;;;;20.43;11.53;;;;;;;;;;5047320;28;20691;-76
2023/03/04 01:12:53;;;;;;;20.33;12.00;;;;;;;;;;5050116;28;20228;-76
2023/03/04 01:15:20;;;;;;;18.33;10.90;;;;;;;;;;5048711;28;20265;-76
2023/03/04 01:17:46;;;;;;;18.20;10.60;;;;;;;;;;5051306;28;20192;-76
2023/03/04 01:20:14;;;;;;;19.27;11.13;;;;;;;;;;5031445;28;20174;-76
2023/03/04 01:22:40;;;;;;;20.93;12.80;;;;;;;;;;5047546;28;20277;-76
2023/03/04 01:25:07;;;;;;;20.50;11.37;;;;;;;;;;5045047;28;20685;-76
2023/03/04 01:27:33;;;;;;;18.40;11.00;;;;;;;;;;5044592;28;20224;-76
2023/03/04 01:29:59;;;;;;;19.77;11.07;;;;;;;;;;5048412;28;20588;-76
2023/03/04 01:32:26;;;;;;;18.20;11.17;;;;;;;;;;5051246;28;20292;-76
2023/03/04 01:34:52;;;;;;;19.47;9.90;;;;;;;;;;5048237;28;20482;-76
2023/03/04 01:37:18;;;;;;;16.63;10.10;;;;;;;;;;5045509;28;20431;-76
2023/03/04 01:39:45;;;;;;;18.83;11.07;;;;;;;;;;5043774;28;20417;-76
2023/03/04 01:42:23;;;;;;;19.40;11.23;;;;;;;;;;5034948;28;20463;-76
2023/03/04 01:44:50;;;;;;;22.37;12.17;;;;;;;;;;5043384;28;20228;-76
2023/03/04 01:47:17;;;;;;;18.47;10.37;;;;;;;;;;5050906;28;20436;-76
2023/03/04 01:49:43;;;;;;;18.33;10.70;;;;;;;;;;5049251;28;20240;-76
2023/03/04 01:52:13;;;;;;;21.43;11.57;;;;;;;;;;5051320;28;20826;-76
2023/03/04 01:54:39;;;;;;;19.60;11.30;;;;;;;;;;5050151;28;20622;-76
2023/03/04 01:57:19;;;;;;;20.77;11.60;;;;;;;;;;5048907;28;20171;-76
2023/03/04 01:59:46;;;;;;;20.30;11.63;;;;;;;;;;5046532;28;20243;-76
2023/03/04 02:02:12;;;;;;;21.10;11.73;;;;;;;;;;5048367;28;20205;-76
2023/03/04 02:04:38;;;;;;;20.47;11.60;;;;;;;;;;5049360;28;21013;-76
2023/03/04 02:07:05;;;;;;;20.43;11.77;;;;;;;;;;5039553;28;20486;-75
2023/03/04 02:09:32;;;;;;;18.27;10.73;;;;;;;;;;5056927;28;20432;-76
2023/03/04 02:11:59;;;;;;;21.40;11.83;;;;;;;;;;5047763;28;20284;-75
2023/03/04 02:14:25;;;;;;;24.80;12.37;;;;;;;;;;5049274;28;20251;-75
2023/03/04 02:16:51;;;;;;;20.57;11.63;;;;;;;;;;5049025;28;20170;-74
2023/03/04 02:19:22;;;;;;;21.57;12.23;;;;;;;;;;5048663;28;20178;-74
2023/03/04 02:21:52;;;;;;;21.70;12.10;;;;;;;;;;5050734;28;20317;-75
2023/03/04 02:24:32;;;;;;;20.23;11.80;;;;;;;;;;5030794;28;20439;-76
2023/03/04 02:27:09;;;;;;;20.53;11.40;;;;;;;;;;5050563;28;20567;-76
2023/03/04 02:29:45;;;;;;;18.47;11.13;;;;;;;;;;5064223;28;20436;-76
2023/03/04 02:32:22;;;;;;;17.70;10.53;;;;;;;;;;5051185;28;20205;-76
2023/03/04 02:34:57;;;;;;;20.30;11.80;;;;;;;;;;5035226;28;20198;-76
2023/03/04 02:37:33;;;;;;;23.50;11.63;;;;;;;;;;5051502;28;20177;-76
2023/03/04 02:40:06;;;;;;;22.73;12.23;;;;;;;;;;5036698;28;20900;-76
2023/03/04 02:42:33;;;;;;;22.20;12.07;;;;;;;;;;5034566;28;20208;-76
2023/03/04 02:45:00;;;;;;;20.33;11.63;;;;;;;;;;5052012;28;20424;-76
2023/03/04 02:47:28;;;;;;;20.73;11.87;;;;;;;;;;5034222;28;20463;-76
2023/03/04 02:49:55;;;;;;;20.37;11.60;;;;;;;;;;5050734;28;20534;-74
2023/03/04 02:52:24;;;;;;;20.33;10.73;;;;;;;;;;5050648;28;20455;-73
2023/03/04 02:54:51;;;;;;;20.20;11.37;;;;;;;;;;5051092;28;20828;-73
2023/03/04 02:57:19;;;;;;;21.20;11.83;;;;;;;;;;5050712;28;20233;-72
2023/03/04 02:59:50;;;;;;;24.10;12.63;;;;;;;;;;5050724;28;20433;-74
2023/03/04 03:02:20;;;;;;;21.50;12.23;;;;;;;;;;5034280;28;20204;-74
2023/03/04 03:04:46;;;;;;;20.70;11.53;;;;;;;;;;5050936;28;20455;-73
2023/03/04 03:07:15;;;;;;;23.43;11.70;;;;;;;;;;5050720;28;20181;-73
2023/03/04 03:09:42;;;;;;;18.83;12.03;;;;;;;;;;5050895;28;20533;-74
2023/03/04 03:12:08;;;;;;;20.33;11.87;;;;;;;;;;5050334;28;20814;-73
2023/03/04 03:14:35;;;;;;;22.83;12.37;;;;;;;;;;5034136;28;20458;-74
2023/03/04 03:17:03;;;;;;;22.23;12.70;;;;;;;;;;5050270;28;20420;-73
2023/03/04 03:19:30;;;;;;;22.60;12.87;;;;;;;;;;5050225;28;20436;-74
2023/03/04 03:21:56;;;;;;;23.53;12.20;;;;;;;;;;5049972;28;20530;-74
2023/03/04 03:24:23;;;;;;;24.07;12.57;;;;;;;;;;5050326;28;20821;-74
2023/03/04 03:26:49;;;;;;;23.07;12.77;;;;;;;;;;5049999;28;20550;-74
2023/03/04 03:29:15;;;;;;;23.93;13.20;;;;;;;;;;5046981;28;20285;-72
2023/03/04 03:31:41;;;;;;;21.90;12.47;;;;;;;;;;5036632;28;20550;-73
2023/03/04 03:34:07;;;;;;;24.10;12.87;;;;;;;;;;5049954;28;20464;-74
2023/03/04 03:36:33;;;;;;;22.17;12.20;;;;;;;;;;5050938;28;20441;-74
2023/03/04 03:38:59;;;;;;;19.87;12.17;;;;;;;;;;5050201;28;20429;-74
2023/03/04 03:41:26;;;;;;;23.47;12.97;;;;;;;;;;5042405;28;20199;-73
2023/03/04 03:43:52;;;;;;;22.97;12.53;;;;;;;;;;5050202;28;20194;-73
2023/03/04 03:46:18;;;;;;;20.17;12.23;;;;;;;;;;5050292;28;20436;-72
2023/03/04 03:48:44;;;;;;;21.20;12.30;;;;;;;;;;5050929;28;20734;-74
2023/03/04 03:51:10;;;;;;;21.43;11.63;;;;;;;;;;5049685;28;20964;-73
2023/03/04 03:53:36;;;;;;;19.03;11.57;;;;;;;;;;5048327;28;20202;-74
2023/03/04 03:56:02;;;;;;;19.40;10.97;;;;;;;;;;5047622;28;20432;-73
2023/03/04 03:58:28;;;;;;;21.47;11.90;;;;;;;;;;5048627;28;20540;-75
2023/03/04 04:00:54;;;;;;;24.73;12.57;;;;;;;;;;5048605;28;20482;-73
2023/03/04 04:03:21;;;;;;;23.90;13.10;;;;;;;;;;5049040;28;20201;-74
2023/03/04 04:05:47;;;;;;;22.23;12.53;;;;;;;;;;5048410;28;20436;-74
2023/03/04 04:08:14;;;;;;;20.40;12.73;;;;;;;;;;5048375;28;20445;-74
2023/03/04 04:10:40;;;;;;;20.88;13.52;;;;;;;;;;5045977;28;20511;-74
2023/03/04 04:13:07;;;;;;;22.43;13.33;;;;;;;;;;5043923;28;20583;-74
2023/03/04 04:15:33;;;;;;;24.67;13.73;;;;;;;;;;5050464;28;20659;-74
2023/03/04 04:17:59;;;;;;;21.17;12.23;;;;;;;;;;5050707;28;20633;-74
2023/03/04 04:20:25;;;;;;;23.70;14.20;;;;;;;;;;5049293;28;20245;-74
2023/03/04 04:22:52;;;;;;;27.77;15.40;;;;;;;;;;5032519;28;20531;-74
2023/03/04 04:25:18;;;;;;;26.53;15.27;;;;;;;;;;5047105;28;20433;-74
2023/03/04 04:27:44;;;;;;;37.47;18.53;;;;;;;;;;5048855;28;20678;-74
2023/03/04 04:30:10;;;;;;;36.43;17.70;;;;;;;;;;5050378;28;20428;-73
2023/03/04 04:32:37;;;;;;;35.10;17.90;;;;;;;;;;5048783;28;20523;-74
2023/03/04 04:35:03;;;;;;;38.53;17.60;;;;;;;;;;5047900;28;20533;-74
2023/03/04 04:37:29;;;;;;;39.20;18.53;;;;;;;;;;5048570;28;20220;-74
2023/03/04 04:39:56;;;;;;;33.20;16.43;;;;;;;;;;5048449;28;20428;-74
2023/03/04 04:42:22;;;;;;;29.70;15.27;;;;;;;;;;5046815;28;20472;-73
2023/03/04 04:44:49;;;;;;;30.70;15.27;;;;;;;;;;5043436;28;20448;-74
2023/03/04 04:47:15;;;;;;;29.77;15.17;;;;;;;;;;5028242;28;21150;-74
2023/03/04 04:49:41;;;;;;;27.70;14.40;;;;;;;;;;5045575;28;20432;-74
2023/03/04 04:52:07;;;;;;;23.57;12.87;;;;;;;;;;5043152;28;20463;-74
2023/03/04 04:54:33;;;;;;;24.40;12.87;;;;;;;;;;5037310;28;20526;-74
2023/03/04 04:56:59;;;;;;;26.23;13.67;;;;;;;;;;5046083;28;20591;-74
2023/03/04 04:59:26;;;;;;;35.27;17.77;;;;;;;;;;5048904;28;20527;-73
2023/03/04 05:01:52;;;;;;;34.20;18.23;;;;;;;;;;5048206;28;20447;-73
2023/03/04 05:04:18;;;;;;;41.20;19.67;;;;;;;;;;5048424;28;20514;-73
2023/03/04 05:06:44;;;;;;;39.83;19.90;;;;;;;;;;5045048;28;20513;-74
2023/03/04 05:09:10;;;;;;;43.77;20.60;;;;;;;;;;5041776;28;20447;-74
2023/03/04 05:11:36;;;;;;;49.07;21.73;;;;;;;;;;5047794;28;20288;-74
2023/03/04 05:14:14;;;;;;;58.67;24.60;;;;;;;;;;5049726;28;20487;-73
2023/03/04 05:16:40;;;;;;;52.03;23.50;;;;;;;;;;5045375;28;20490;-73
2023/03/04 05:19:06;;;;;;;57.67;23.63;;;;;;;;;;5045841;28;20178;-73
2023/03/04 05:21:32;;;;;;;56.40;24.60;;;;;;;;;;5046339;28;20448;-73
2023/03/04 05:23:58;;;;;;;53.60;23.53;;;;;;;;;;5046533;28;20803;-73
2023/03/04 05:26:25;;;;;;;50.63;23.73;;;;;;;;;;5045238;28;20947;-73
2023/03/04 05:28:51;;;;;;;52.93;23.97;;;;;;;;;;5043129;28;20799;-74
2023/03/04 05:31:17;;;;;;;53.63;22.60;;;;;;;;;;5043490;28;20831;-73
2023/03/04 05:33:43;;;;;;;48.93;22.43;;;;;;;;;;5044963;28;20222;-73
2023/03/04 05:36:10;;;;;;;47.70;22.37;;;;;;;;;;5043692;28;20613;-73
2023/03/04 05:38:36;;;;;;;44.27;20.57;;;;;;;;;;5045062;28;20192;-73
2023/03/04 05:41:04;;;;;;;42.93;20.57;;;;;;;;;;5044527;28;20178;-73
2023/03/04 05:43:31;;;;;;;42.17;20.73;;;;;;;;;;5040314;28;20206;-73
2023/03/04 05:45:57;;;;;;;51.27;23.50;;;;;;;;;;5044107;28;20497;-73
2023/03/04 05:48:23;;;;;;;53.03;23.80;;;;;;;;;;5049097;28;20432;-73
2023/03/04 05:50:53;;;;;;;52.67;24.53;;;;;;;;;;5047730;28;20194;-73
2023/03/04 05:53:19;;;;;;;52.40;23.07;;;;;;;;;;5040020;28;21295;-73
2023/03/04 05:55:46;;;;;;;46.20;21.20;;;;;;;;;;5054758;28;20439;-73
2023/03/04 05:58:13;;;;;;;43.50;20.50;;;;;;;;;;5044246;28;20239;-73
2023/03/04 06:00:39;;;;;;;39.63;20.03;;;;;;;;;;5051396;28;20182;-73
2023/03/04 06:03:05;;;;;;;53.70;25.27;;;;;;;;;;5048345;28;20465;-74
2023/03/04 06:05:31;;;;;;;59.33;26.17;;;;;;;;;;5045996;28;20255;-73
2023/03/04 06:07:57;;;;;;;52.43;23.07;;;;;;;;;;5047059;28;20439;-73
2023/03/04 06:10:24;;;;;;;50.77;23.60;;;;;;;;;;5046936;28;20170;-73
2023/03/04 06:12:50;;;;;;;55.70;25.00;;;;;;;;;;5049584;28;20205;-73
2023/03/04 06:15:16;;;;;;;49.30;23.63;;;;;;;;;;5045570;28;20608;-73
2023/03/04 06:17:43;;;;;;;51.17;22.93;;;;;;;;;;5047521;28;20216;-73
2023/03/04 06:20:10;;;;;;;44.90;21.47;;;;;;;;;;5051002;28;20432;-73
2023/03/04 06:22:36;;;;;;;53.93;24.87;;;;;;;;;;5049791;28;20222;-72
2023/03/04 06:25:02;;;;;;;52.67;24.90;;;;;;;;;;5049475;28;20452;-73
2023/03/04 06:27:29;;;;;;;54.40;24.77;;;;;;;;;;5047651;28;20498;-73
2023/03/04 06:29:56;;;;;;;48.63;23.80;;;;;;;;;;5046819;28;20440;-80
2023/03/04 06:32:22;;;;;;;52.13;24.80;;;;;;;;;;5047063;28;20275;-78
2023/03/04 06:34:48;;;;;;;45.40;21.73;;;;;;;;;;5050827;28;20511;-78
2023/03/04 06:37:14;;;;;;;48.40;22.60;;;;;;;;;;5032398;28;20196;-81
2023/03/04 06:39:40;;;;;;;40.53;20.53;;;;;;;;;;5029476;28;20440;-75
2023/03/04 06:42:07;;;;;;;43.93;21.60;;;;;;;;;;5042315;28;20251;-76
2023/03/04 06:44:33;;;;;;;43.67;21.40;;;;;;;;;;5050222;28;20185;-77
2023/03/04 06:47:00;;;;;;;38.93;18.63;;;;;;;;;;5049769;28;20277;-76
2023/03/04 06:49:26;;;;;;;36.13;17.33;;;;;;;;;;5034371;28;20263;-77
2023/03/04 06:51:52;;;;;;;36.30;18.53;;;;;;;;;;5048081;28;20511;-76
2023/03/04 06:54:19;;;;;;;32.40;17.43;;;;;;;;;;5049386;28;20456;-77
2023/03/04 06:56:45;;;;;;;29.00;16.67;;;;;;;;;;5050642;28;20178;-75
2023/03/04 06:59:11;;;;;;;31.60;17.63;;;;;;;;;;5049719;28;20276;-75
2023/03/04 07:01:37;;;;;;;30.83;17.03;;;;;;;;;;5049328;28;20444;-76
2023/03/04 07:04:03;;;;;;;32.20;17.57;;;;;;;;;;5049314;28;20269;-75
2023/03/04 07:06:30;;;;;;;37.60;19.10;;;;;;;;;;5048552;28;20776;-77
2023/03/04 07:08:56;;;;;;;35.83;17.90;;;;;;;;;;5048543;28;20182;-77
2023/03/04 07:11:23;;;;;;;35.10;18.63;;;;;;;;;;5031590;28;20662;-77
2023/03/04 07:13:49;;;;;;;41.73;19.77;;;;;;;;;;5048669;28;20220;-77
2023/03/04 07:16:17;;;;;;;34.87;18.80;;;;;;;;;;5051543;28;20174;-76
2023/03/04 07:18:44;;;;;;;34.03;17.30;;;;;;;;;;5047918;28;20623;-77
2023/03/04 07:21:11;;;;;;;32.13;18.27;;;;;;;;;;5019290;28;20178;-76
2023/03/04 07:23:37;;;;;;;32.13;17.17;;;;;;;;;;5045312;28;20683;-78
2023/03/04 07:26:04;;;;;;;33.47;17.07;;;;;;;;;;5048819;28;20424;-76
2023/03/04 07:28:30;;;;;;;32.17;17.57;;;;;;;;;;5050455;28;21980;-78
2023/03/04 07:30:56;;;;;;;31.23;16.70;;;;;;;;;;5048092;28;20178;-77
2023/03/04 07:33:22;;;;;;;33.00;17.67;;;;;;;;;;5048973;28;20704;-78
2023/03/04 07:35:48;;;;;;;35.23;18.20;;;;;;;;;;5052842;28;20186;-76
2023/03/04 07:38:15;;;;;;;33.60;18.20;;;;;;;;;;5031562;28;20284;-76
2023/03/04 07:40:41;;;;;;;32.77;17.67;;;;;;;;;;5064039;28;20272;-77
2023/03/04 07:43:07;;;;;;;31.93;16.67;;;;;;;;;;5049197;28;20209;-76
2023/03/04 07:45:33;;;;;;;34.00;17.63;;;;;;;;;;5015442;28;20268;-77
2023/03/04 07:47:59;;;;;;;31.83;17.67;;;;;;;;;;5050279;28;20634;-77
2023/03/04 07:50:26;;;;;;;37.33;19.40;;;;;;;;;;5029332;28;20246;-78
2023/03/04 07:52:52;;;;;;;38.93;19.77;;;;;;;;;;5031950;28;20286;-79
2023/03/04 07:55:18;;;;;;;33.43;17.97;;;;;;;;;;5028546;28;20265;-77
2023/03/04 07:57:45;;;;;;;34.93;18.47;;;;;;;;;;5046834;28;20200;-79
2023/03/04 08:00:13;;;;;;;39.23;21.40;;;;;;;;;;5031465;28;20178;-75
2023/03/04 08:02:39;;;;;;;38.80;19.93;;;;;;;;;;5050820;28;20229;-79
2023/03/04 08:05:06;;;;;;;41.50;21.30;;;;;;;;;;5031555;28;20236;-77
2023/03/04 08:07:32;;;;;;;40.47;20.33;;;;;;;;;;5032013;28;20182;-75
2023/03/04 08:09:58;;;;;;;39.37;20.90;;;;;;;;;;5047703;28;20601;-77
2023/03/04 08:12:24;;;;;;;38.83;20.50;;;;;;;;;;5045948;28;20198;-77
2023/03/04 08:14:50;;;;;;;46.53;23.77;;;;;;;;;;5049167;28;20234;-76
2023/03/04 08:17:17;;;;;;;48.47;24.43;;;;;;;;;;5047330;28;20214;-76
2023/03/04 08:19:43;;;;;;;56.97;25.83;;;;;;;;;;5045844;28;20227;-74
2023/03/04 08:22:09;;;;;;;48.63;24.13;;;;;;;;;;5047489;28;20564;-76
2023/03/04 08:24:35;;;;;;;55.40;25.73;;;;;;;;;;5046081;28;20189;-76
2023/03/04 08:27:02;;;;;;;59.03;27.03;;;;;;;;;;5044719;28;20182;-76
2023/03/04 08:29:28;;;;;;;55.70;25.80;;;;;;;;;;5047061;28;20213;-76
2023/03/04 08:31:55;;;;;;;52.60;24.77;;;;;;;;;;5049170;28;20254;-77
2023/03/04 08:34:23;;;;;;;58.23;26.63;;;;;;;;;;5052115;28;20209;-76
2023/03/04 08:36:49;;;;;;;58.07;26.50;;;;;;;;;;5054334;28;20189;-77
2023/03/04 08:39:16;;;;;;;53.43;25.53;;;;;;;;;;5036624;28;20193;-78
2023/03/04 08:41:42;;;;;;;61.00;27.27;;;;;;;;;;5048870;28;20653;-78
2023/03/04 08:44:11;;;;;;;57.30;26.03;;;;;;;;;;5066647;28;20837;-78
2023/03/04 08:46:38;;;;;;;57.53;26.37;;;;;;;;;;5032985;28;20216;-77
2023/03/04 08:49:05;;;;;;;50.53;25.27;;;;;;;;;;5046968;28;20174;-77
2023/03/04 08:51:31;;;;;;;54.23;26.63;;;;;;;;;;5046048;28;20218;-77
2023/03/04 08:54:05;;;;;;;52.23;24.53;;;;;;;;;;5014416;28;20322;-76
2023/03/04 08:56:34;;;;;;;58.83;26.53;;;;;;;;;;5047557;28;20185;-77
2023/03/04 08:59:00;;;;;;;50.30;25.37;;;;;;;;;;5029757;28;20185;-76
2023/03/04 09:01:26;;;;;;;51.23;24.23;;;;;;;;;;5043722;28;20305;-77
2023/03/04 09:03:53;;;;;;;51.50;25.00;;;;;;;;;;5047220;28;20189;-76
2023/03/04 09:06:19;;;;;;;50.00;23.83;;;;;;;;;;5047620;28;20206;-77
2023/03/04 09:08:45;;;;;;;48.43;24.13;;;;;;;;;;5036738;28;20280;-76
2023/03/04 09:11:12;;;;;;;49.57;24.70;;;;;;;;;;5050097;28;20192;-77
2023/03/04 09:13:38;;;;;;;50.60;25.03;;;;;;;;;;5045060;28;20274;-76
2023/03/04 09:16:09;;;;;;;51.93;23.93;;;;;;;;;;5031141;28;20666;-77
2023/03/04 09:18:35;;;;;;;44.70;23.30;;;;;;;;;;5047584;28;20173;-77
2023/03/04 09:21:01;;;;;;;50.30;24.60;;;;;;;;;;5049231;28;20178;-76
2023/03/04 09:23:27;;;;;;;53.33;25.20;;;;;;;;;;5028918;28;20213;-77
2023/03/04 09:25:54;;;;;;;56.67;26.57;;;;;;;;;;5049232;28;20265;-77
2023/03/04 09:28:20;;;;;;;52.10;26.63;;;;;;;;;;5044665;28;20189;-77
2023/03/04 09:30:46;;;;;;;50.37;24.87;;;;;;;;;;5048029;28;21973;-76
2023/03/04 09:33:13;;;;;;;48.83;24.90;;;;;;;;;;5043302;28;20288;-77
2023/03/04 09:35:40;;;;;;;48.90;23.60;;;;;;;;;;5041892;28;20211;-76
2023/03/04 09:38:06;;;;;;;53.67;25.40;;;;;;;;;;5047925;28;20182;-77
2023/03/04 09:40:36;;;;;;;51.60;26.07;;;;;;;;;;5047935;28;20182;-77
2023/03/04 09:43:03;;;;;;;53.10;26.23;;;;;;;;;;5044098;28;20255;-77
2023/03/04 09:45:36;;;;;;;51.70;26.20;;;;;;;;;;5030894;28;20189;-77
2023/03/04 09:48:03;;;;;;;54.97;26.67;;;;;;;;;;5029871;28;20186;-76
2023/03/04 09:50:34;;;;;;;49.70;24.83;;;;;;;;;;5045827;28;20204;-77
2023/03/04 09:53:13;;;;;;;50.37;25.20;;;;;;;;;;5046333;28;20280;-77
2023/03/04 09:55:40;;;;;;;51.97;25.77;;;;;;;;;;5057771;28;20189;-77
2023/03/04 09:58:07;;;;;;;53.13;27.13;;;;;;;;;;5055689;28;20190;-77
2023/03/04 10:00:36;;;;;;;53.47;25.87;;;;;;;;;;5050856;28;20198;-76
2023/03/04 10:03:10;;;;;;;56.37;27.53;;;;;;;;;;5048051;28;20317;-77
2023/03/04 10:05:45;;;;;;;55.60;28.17;;;;;;;;;;5048661;28;20229;-77
2023/03/04 10:08:17;;;;;;;53.47;25.83;;;;;;;;;;5044225;28;20224;-77
2023/03/04 10:10:44;;;;;;;56.87;27.97;;;;;;;;;;5047801;28;20650;-78
2023/03/04 10:13:14;;;;;;;59.73;28.60;;;;;;;;;;5031860;28;20724;-78
2023/03/04 10:15:43;;;;;;;54.43;27.07;;;;;;;;;;5048633;28;20182;-77
2023/03/04 10:18:12;;;;;;;57.80;27.90;;;;;;;;;;5046983;28;21148;-77
2023/03/04 10:20:50;;;;;;;58.30;29.97;;;;;;;;;;5031175;28;20182;-77
2023/03/04 10:23:24;;;;;;;73.63;29.97;;;;;;;;;;5047384;28;20676;-77
2023/03/04 10:25:53;;;;;;;61.63;31.23;;;;;;;;;;5047524;28;20217;-77
2023/03/04 10:28:27;;;;;;;57.93;29.03;;;;;;;;;;5043475;28;20185;-77
2023/03/04 10:31:02;;;;;;;60.80;30.43;;;;;;;;;;5051194;28;20221;-77
2023/03/04 10:33:29;;;;;;;58.63;29.23;;;;;;;;;;5049522;28;20178;-77
2023/03/04 10:36:14;;;;;;;57.03;29.97;;;;;;;;;;5031769;28;20523;-77
2023/03/04 10:38:41;;;;;;;61.97;30.30;;;;;;;;;;5014556;28;20198;-77
2023/03/04 10:41:12;;;;;;;71.13;32.33;;;;;;;;;;5052065;28;20194;-77
2023/03/04 10:43:38;;;;;;;63.13;32.53;;;;;;;;;;5053676;28;20185;-77
2023/03/04 10:46:04;;;;;;;57.07;30.33;;;;;;;;;;5052095;28;20212;-78
2023/03/04 10:48:31;;;;;;;56.20;30.87;;;;;;;;;;5052373;28;20178;-77
2023/03/04 10:51:18;;;;;;;58.30;31.13;;;;;;;;;;5052116;28;20214;-78
2023/03/04 10:53:46;;;;;;;58.67;30.40;;;;;;;;;;5059891;28;20220;-79
2023/03/04 10:56:32;;;;;;;60.97;31.10;;;;;;;;;;5043970;28;20273;-78
2023/03/04 10:59:17;;;;;;;61.23;31.97;;;;;;;;;;5022331;28;21141;-82
2023/03/04 11:01:43;;;;;;;55.87;30.87;;;;;;;;;;5050096;28;20308;-81
2023/03/04 11:04:19;;;;;;;59.00;32.13;;;;;;;;;;5051719;28;20182;-80
2023/03/04 11:06:45;;;;;;;57.10;30.40;;;;;;;;;;5037457;28;20186;-80
2023/03/04 11:09:21;;;;;;;57.63;30.97;;;;;;;;;;5034530;28;20189;-72
2023/03/04 11:11:49;;;;;;;56.67;30.53;;;;;;;;;;5051766;28;20220;-72
2023/03/04 11:14:28;;;;;;;60.53;32.70;;;;;;;;;;5052256;28;20224;-73
2023/03/04 11:16:56;;;;;;;61.87;31.03;;;;;;;;;;5016412;28;20187;-79
2023/03/04 11:19:23;;;;;;;59.73;30.90;;;;;;;;;;5040259;28;20178;-77
2023/03/04 11:21:51;;;;;;;57.37;29.37;;;;;;;;;;5059381;28;20202;-77
2023/03/04 11:24:20;;;;;;;57.03;30.67;;;;;;;;;;5048907;28;20189;-73
2023/03/04 11:26:53;;;;;;;53.67;28.93;;;;;;;;;;5046155;28;20190;-74
2023/03/04 11:29:28;;;;;;;57.17;29.87;;;;;;;;;;5028613;28;21435;-73
2023/03/04 11:31:58;;;;;;;59.50;30.70;;;;;;;;;;5046222;28;20701;-73
2023/03/04 11:34:30;;;;;;;58.17;30.77;;;;;;;;;;5048458;28;20213;-73
2023/03/04 11:37:03;;;;;;;59.90;31.17;;;;;;;;;;5047090;28;20210;-73
2023/03/04 11:39:33;;;;;;;58.23;31.47;;;;;;;;;;5043552;28;20309;-74
2023/03/04 11:42:07;;;;;;;56.17;29.97;;;;;;;;;;5046033;28;20202;-72
2023/03/04 11:44:33;;;;;;;51.63;28.70;;;;;;;;;;5035814;28;20196;-72
2023/03/04 11:47:07;;;;;;;59.70;29.70;;;;;;;;;;5045274;28;20177;-73
2023/03/04 11:49:39;;;;;;;69.70;31.73;;;;;;;;;;5049828;28;20190;-73
2023/03/04 11:52:11;;;;;;;57.77;27.30;;;;;;;;;;5048594;28;20312;-72
2023/03/04 11:54:52;;;;;;;47.33;25.93;;;;;;;;;;5044011;28;20213;-73
2023/03/04 11:57:28;;;;;;;48.37;26.63;;;;;;;;;;5053015;28;20216;-72
2023/03/04 12:00:10;;;;;;;41.23;23.47;;;;;;;;;;5049738;28;20265;-73
2023/03/04 12:02:47;;;;;;;44.13;26.23;;;;;;;;;;5042978;28;20205;-73
2023/03/04 12:05:39;;;;;;;40.00;24.03;;;;;;;;;;5049367;28;20197;-72
2023/03/04 12:08:11;;;;;;;49.77;31.63;;;;;;;;;;5037262;28;20198;-72
2023/03/04 12:10:55;;;;;;;46.90;26.30;;;;;;;;;;5051285;28;20184;-72
2023/03/04 12:13:40;;;;;;;39.93;24.20;;;;;;;;;;5047414;28;20197;-72
2023/03/04 12:16:12;;;;;;;39.00;23.50;;;;;;;;;;5047808;28;20186;-72
2023/03/04 12:18:38;;;;;;;50.23;29.50;;;;;;;;;;5047409;28;20692;-72
2023/03/04 12:21:16;;;;;;;44.67;24.73;;;;;;;;;;5050555;28;20588;-72
2023/03/04 12:24:00;;;;;;;40.90;24.93;;;;;;;;;;5041021;28;20618;-72
2023/03/04 12:26:38;;;;;;;38.03;22.50;;;;;;;;;;5048682;28;20189;-72
2023/03/04 12:29:07;;;;;;;37.37;22.73;;;;;;;;;;5062716;28;20193;-72
2023/03/04 12:31:34;;;;;;;38.13;23.63;;;;;;;;;;5047406;28;20209;-75
2023/03/04 12:34:19;;;;;;;41.83;25.13;;;;;;;;;;5050095;28;20210;-74
2023/03/04 12:37:04;;;;;;;37.17;23.00;;;;;;;;;;5048731;28;20186;-73
2023/03/04 12:39:59;;;;;;;36.93;22.20;;;;;;;;;;5049343;28;20201;-73
2023/03/04 12:42:47;;;;;;;40.23;22.43;;;;;;;;;;4993456;28;20222;-73
2023/03/04 12:45:19;;;;;;;37.00;22.23;;;;;;;;;;5048926;28;20181;-73
2023/03/04 12:48:11;;;;;;;41.20;21.93;;;;;;;;;;5045908;28;20247;-72
2023/03/04 12:50:41;;;;;;;34.57;20.87;;;;;;;;;;5052479;28;20238;-73
2023/03/04 12:53:20;;;;;;;38.23;21.67;;;;;;;;;;5051704;28;20212;-73
2023/03/04 12:55:47;;;;;;;34.37;20.57;;;;;;;;;;5037520;28;20664;-73
2023/03/04 12:58:16;;;;;;;39.17;22.57;;;;;;;;;;5042522;28;20185;-73
2023/03/04 13:01:01;;;;;;;34.63;20.67;;;;;;;;;;5049266;28;20185;-73
2023/03/04 13:03:41;;;;;;;36.53;20.90;;;;;;;;;;5046538;28;20181;-72
2023/03/04 13:06:20;;;;;;;35.40;20.23;;;;;;;;;;5042640;28;20728;-72
2023/03/04 13:08:56;;;;;;;35.80;20.63;;;;;;;;;;5042571;28;20190;-74
2023/03/04 13:11:30;;;;;;;34.00;19.67;;;;;;;;;;5043605;28;20217;-72
2023/03/04 13:14:16;;;;;;;31.00;18.97;;;;;;;;;;5046633;28;20220;-73
2023/03/04 13:16:47;;;;;;;35.00;19.80;;;;;;;;;;5043442;28;20706;-73
2023/03/04 13:19:36;;;;;;;36.60;20.07;;;;;;;;;;5047954;28;20243;-72
2023/03/04 13:22:02;;;;;;;33.67;18.87;;;;;;;;;;5044591;28;20210;-72
2023/03/04 13:24:46;;;;;;;31.73;19.40;;;;;;;;;;5045181;28;20186;-72
2023/03/04 13:27:31;;;;;;;35.00;18.97;;;;;;;;;;5043845;28;20228;-72
2023/03/04 13:29:57;;;;;;;30.60;18.73;;;;;;;;;;5047773;28;20657;-72
2023/03/04 13:32:37;;;;;;;30.00;18.53;;;;;;;;;;5048054;28;20262;-72
2023/03/04 13:35:23;;;;;;;32.43;18.73;;;;;;;;;;5042897;28;20296;-73
2023/03/04 13:37:57;;;;;;;35.83;18.77;;;;;;;;;;5043082;28;20186;-73
2023/03/04 13:40:34;;;;;;;29.50;18.43;;;;;;;;;;5043466;28;20193;-73
2023/03/04 13:43:20;;;;;;;34.67;17.97;;;;;;;;;;5042276;28;20261;-73
2023/03/04 13:45:46;;;;;;;36.00;19.43;;;;;;;;;;5042573;28;20195;-73
2023/03/04 13:48:35;;;;;;;30.03;17.50;;;;;;;;;;5044780;28;20181;-73
2023/03/04 13:51:01;;;;;;;27.77;17.20;;;;;;;;;;5045606;28;20205;-73
2023/03/04 13:53:30;;;;;;;31.53;17.60;;;;;;;;;;5046811;28;20236;-74
2023/03/04 13:56:11;;;;;;;33.33;19.40;;;;;;;;;;5044860;28;20214;-73
2023/03/04 13:58:38;;;;;;;33.00;18.20;;;;;;;;;;5042715;28;20696;-73
2023/03/04 14:01:06;;;;;;;32.17;18.77;;;;;;;;;;5044492;28;20209;-74
2023/03/04 14:03:34;;;;;;;34.10;19.60;;;;;;;;;;5040882;28;20650;-75
2023/03/04 14:06:13;;;;;;;34.03;19.90;;;;;;;;;;5046565;28;20269;-74
2023/03/04 14:08:39;;;;;;;34.40;19.93;;;;;;;;;;5032778;28;20193;-74
2023/03/04 14:11:10;;;;;;;36.40;19.90;;;;;;;;;;5048937;28;20185;-74
2023/03/04 14:13:37;;;;;;;35.67;20.03;;;;;;;;;;5049844;28;20166;-73
2023/03/04 14:16:03;;;;;;;35.43;20.57;;;;;;;;;;5042215;28;20214;-74
2023/03/04 14:18:30;;;;;;;34.57;18.80;;;;;;;;;;5054711;28;20752;-74
2023/03/04 14:20:58;;;;;;;32.77;19.20;;;;;;;;;;5052055;28;20181;-73
2023/03/04 14:23:26;;;;;;;34.73;20.20;;;;;;;;;;5052142;28;20202;-75
2023/03/04 14:26:03;;;;;;;36.70;19.33;;;;;;;;;;5051340;28;20174;-72
2023/03/04 14:28:29;;;;;;;36.07;19.83;;;;;;;;;;5050008;28;20217;-76